createdAt,value
2019-04-22T00:02:15.241Z,46.40
2019-04-22T00:04:56.286Z,47.10
2019-04-22T00:07:38.877Z,47.50
2019-04-22T00:10:16.195Z,47.10
2019-04-22T00:12:42.400Z,46.50
2019-04-22T00:15:07.949Z,46.40
2019-04-22T00:17:48.248Z,46.20
2019-04-22T00:20:18.025Z,45.60
2019-04-22T00:22:42.589Z,45.70
2019-04-22T00:25:14.350Z,45.50
2019-04-22T00:30:16.521Z,45.30
2019-04-22T00:32:41.744Z,45.60
2019-04-22T00:35:14.738Z,46.30
2019-04-22T00:37:43.466Z,46.10
2019-04-22T00:40:27.308Z,46.00
2019-04-22T00:42:47.651Z,46.20
2019-04-22T00:45:24.805Z,47.50
2019-04-22T00:47:46.164Z,47.40
2019-04-22T00:50:19.266Z,47.00
2019-04-22T00:52:49.399Z,47.10
2019-04-22T00:55:18.133Z,47.40
2019-04-22T00:57:46.216Z,47.80
2019-04-22T01:00:18.299Z,48.20
2019-04-22T01:02:49.473Z,47.90
2019-04-22T01:05:21.734Z,48.40
2019-04-22T01:07:50.021Z,47.60
2019-04-22T01:10:19.073Z,48.10
2019-04-22T01:15:23.334Z,48.00
2019-04-22T01:17:53.228Z,48.40
2019-04-22T01:20:29.369Z,48.80
2019-04-22T01:22:52.177Z,48.30
2019-04-22T01:25:19.078Z,47.20
2019-04-22T01:27:46.328Z,47.10
2019-04-22T01:30:12.433Z,47.20
2019-04-22T01:32:36.114Z,48.00
2019-04-22T01:35:12.989Z,48.00
2019-04-22T01:37:52.002Z,48.50
2019-04-22T01:40:24.053Z,48.50
2019-04-22T01:45:25.901Z,48.80
2019-04-22T01:47:58.442Z,48.00
2019-04-22T01:50:26.523Z,49.50
2019-04-22T01:53:00.928Z,48.90
2019-04-22T01:57:53.599Z,49.50
2019-04-22T02:00:26.617Z,49.50
2019-04-22T02:03:01.126Z,48.70
2019-04-22T02:05:26.797Z,48.40
2019-04-22T02:07:56.086Z,48.70
2019-04-22T02:10:36.317Z,49.20
2019-04-22T02:13:01.985Z,49.20
2019-04-22T02:15:48.034Z,49.20
2019-04-22T02:18:02.767Z,49.10
2019-04-22T02:20:34.529Z,48.40
2019-04-22T02:25:56.111Z,49.50
2019-04-22T02:28:32.223Z,48.70
2019-04-22T02:31:16.164Z,48.30
2019-04-22T02:38:51.878Z,47.40
2019-04-22T02:41:20.979Z,48.10
2019-04-22T02:43:46.467Z,48.50
2019-04-22T02:56:13.389Z,48.70
2019-04-22T02:58:51.671Z,49.60
2019-04-22T03:06:16.509Z,48.90
2019-04-22T03:08:41.835Z,48.90
2019-04-22T03:11:16.833Z,48.50
2019-04-22T03:21:12.224Z,48.80
2019-04-22T03:23:45.328Z,48.40
2019-04-22T03:26:27.201Z,49.00
2019-04-22T03:28:47.705Z,48.90
2019-04-22T03:31:26.809Z,49.90
2019-04-22T03:33:55.126Z,49.50
2019-04-22T03:36:41.869Z,50.10
2019-04-22T03:41:27.349Z,51.50
2019-04-22T03:43:56.165Z,51.20
2019-04-22T03:46:14.587Z,51.20
2019-04-22T03:48:45.409Z,51.80
2019-04-22T03:51:26.925Z,51.90
2019-04-22T03:56:47.513Z,51.70
2019-04-22T03:58:49.556Z,51.50
2019-04-22T04:01:18.758Z,51.30
2019-04-22T04:03:57.825Z,51.60
2019-04-22T04:06:18.007Z,51.50
2019-04-22T04:08:46.359Z,51.60
2019-04-22T04:11:07.076Z,52.20
2019-04-22T04:16:19.520Z,52.70
2019-04-22T04:19:07.849Z,52.50
2019-04-22T04:26:42.755Z,52.40
2019-04-22T04:29:06.384Z,52.20
2019-04-22T04:31:40.826Z,52.20
2019-04-22T04:33:54.413Z,52.50
2019-04-22T04:36:32.422Z,52.90
2019-04-22T04:41:35.939Z,54.00
2019-04-22T04:44:03.701Z,54.20
2019-04-22T04:49:19.190Z,54.80
2019-04-22T04:51:35.323Z,53.90
2019-04-22T04:54:05.608Z,53.60
2019-04-22T05:01:40.195Z,53.60
2019-04-22T05:06:43.016Z,54.00
2019-04-22T05:11:45.273Z,54.20
2019-04-22T05:16:34.404Z,53.90
2019-04-22T05:19:07.505Z,53.80
2019-04-22T05:21:30.599Z,53.70
2019-04-22T05:24:09.592Z,53.70
2019-04-22T05:29:05.503Z,54.00
2019-04-22T05:31:38.914Z,53.70
2019-04-22T05:34:04.336Z,54.30
2019-04-22T05:36:38.446Z,55.00
2019-04-22T05:39:06.223Z,54.50
2019-04-22T05:41:36.304Z,54.50
2019-04-22T05:44:08.303Z,55.00
2019-04-22T05:46:34.491Z,54.10
2019-04-22T05:49:09.745Z,54.60
2019-04-22T05:51:38.579Z,54.00
2019-04-22T05:54:09.036Z,54.00
2019-04-22T06:01:44.549Z,53.90
2019-04-22T06:06:36.742Z,52.40
2019-04-22T06:09:10.553Z,51.90
2019-04-22T06:11:33.536Z,51.40
2019-04-22T06:14:12.034Z,50.30
2019-04-22T06:16:47.291Z,49.70
2019-04-22T06:19:14.359Z,48.90
2019-04-22T06:21:46.294Z,48.90
2019-04-22T06:24:29.048Z,48.80
2019-04-22T06:26:54.110Z,49.30
2019-04-22T06:36:51.202Z,49.90
2019-04-22T06:41:58.927Z,49.90
2019-04-22T06:44:24.139Z,49.80
2019-04-22T06:46:53.685Z,50.10
2019-04-22T06:49:26.727Z,49.70
2019-04-22T06:51:55.787Z,49.20
2019-04-22T06:54:21.705Z,49.10
2019-04-22T06:56:57.238Z,48.70
2019-04-22T06:59:26.514Z,48.60
2019-04-22T07:01:56.232Z,48.10
2019-04-22T07:04:23.255Z,49.10
2019-04-22T07:06:56.043Z,48.00
2019-04-22T07:11:49.917Z,47.90
2019-04-22T07:14:18.455Z,47.20
2019-04-22T07:17:07.354Z,46.00
2019-04-22T07:19:38.690Z,45.50
2019-04-22T07:22:00.359Z,44.80
2019-04-22T07:27:00.251Z,43.70
2019-04-22T07:29:27.910Z,44.10
2019-04-22T07:32:00.287Z,43.70
2019-04-22T07:34:34.585Z,43.70
2019-04-22T07:37:22.837Z,42.90
2019-04-22T07:39:32.644Z,41.30
2019-04-22T07:41:55.963Z,41.00
2019-04-22T07:44:31.258Z,40.80
2019-04-22T07:47:04.615Z,41.10
2019-04-22T07:49:41.144Z,41.60
2019-04-22T07:52:04.379Z,41.30
2019-04-22T07:54:38.164Z,41.90
2019-04-22T07:57:13.485Z,44.00
2019-04-22T07:59:57.184Z,42.90
2019-04-22T08:02:26.230Z,42.70
2019-04-22T08:07:24.085Z,43.50
2019-04-22T08:10:05.779Z,43.00
2019-04-22T08:12:26.865Z,43.30
2019-04-22T08:14:53.806Z,42.90
2019-04-22T08:17:50.447Z,42.60
2019-04-22T08:19:56.066Z,42.40
2019-04-22T08:22:21.413Z,41.80
2019-04-22T08:24:58.253Z,40.90
2019-04-22T08:27:25.337Z,40.80
2019-04-22T08:30:06.496Z,40.60
2019-04-22T08:32:28.467Z,40.80
2019-04-22T08:34:55.632Z,41.00
2019-04-22T08:40:00.269Z,41.10
2019-04-22T08:42:36.605Z,40.40
2019-04-22T08:47:32.263Z,38.90
2019-04-22T08:50:02.916Z,38.20
2019-04-22T08:52:27.574Z,39.40
2019-04-22T08:55:04.375Z,37.80
2019-04-22T08:57:58.504Z,37.00
2019-04-22T09:00:02.470Z,36.70
2019-04-22T09:02:34.580Z,36.60
2019-04-22T09:05:10.898Z,36.60
2019-04-22T09:07:31.557Z,36.90
2019-04-22T09:10:02.177Z,37.20
2019-04-22T09:12:46.921Z,37.60
2019-04-22T09:14:57.182Z,36.80
2019-04-22T09:17:34.613Z,37.80
2019-04-22T09:20:06.477Z,36.70
2019-04-22T09:22:38.683Z,35.40
2019-04-22T09:25:00.225Z,34.70
2019-04-22T09:30:09.828Z,34.50
2019-04-22T09:35:03.001Z,34.60
2019-04-22T09:37:41.936Z,34.30
2019-04-22T09:40:13.996Z,35.30
2019-04-22T09:42:41.908Z,34.50
2019-04-22T09:45:05.733Z,34.50
2019-04-22T09:47:47.406Z,33.60
2019-04-22T09:50:09.857Z,33.30
2019-04-22T09:52:40.644Z,32.40
2019-04-22T09:57:39.736Z,32.40
2019-04-22T10:00:11.684Z,33.00
2019-04-22T10:02:40.708Z,31.80
2019-04-22T10:05:17.329Z,30.90
2019-04-22T10:07:38.961Z,30.40
2019-04-22T10:10:18.872Z,30.30
2019-04-22T10:15:11.323Z,30.50
2019-04-22T10:17:46.863Z,30.10
2019-04-22T10:20:15.080Z,30.40
2019-04-22T10:22:46.423Z,30.50
2019-04-22T10:25:11.982Z,30.80
2019-04-22T10:28:07.046Z,30.30
2019-04-22T10:30:08.753Z,30.40
2019-04-22T10:32:43.016Z,29.30
2019-04-22T10:35:12.959Z,29.80
2019-04-22T10:37:38.660Z,29.20
2019-04-22T10:40:15.707Z,29.10
2019-04-22T10:42:45.368Z,29.50
2019-04-22T10:45:14.694Z,28.60
2019-04-22T10:47:43.326Z,28.90
2019-04-22T10:50:12.613Z,28.60
2019-04-22T10:52:41.483Z,28.20
2019-04-22T10:55:11.693Z,28.30
2019-04-22T10:57:40.994Z,28.00
2019-04-22T11:00:11.474Z,28.10
2019-04-22T11:02:41.445Z,28.70
2019-04-22T11:05:12.308Z,28.50
2019-04-22T11:07:49.779Z,28.20
2019-04-22T11:10:30.247Z,28.60
2019-04-22T11:12:43.217Z,28.10
2019-04-22T11:15:11.954Z,28.10
2019-04-22T11:17:41.810Z,28.40
2019-04-22T11:20:11.310Z,28.50
2019-04-22T11:22:40.755Z,28.50
2019-04-22T11:25:09.843Z,28.10
2019-04-22T11:27:39.078Z,28.50
2019-04-22T11:30:08.678Z,28.10
2019-04-22T11:32:38.221Z,27.90
2019-04-22T11:35:09.897Z,27.70
2019-04-22T11:37:38.981Z,28.10
2019-04-22T11:40:19.236Z,28.70
2019-04-22T11:42:38.578Z,28.20
2019-04-22T11:45:09.044Z,28.00
2019-04-22T11:47:39.242Z,28.10
2019-04-22T11:50:10.218Z,29.20
2019-04-22T11:52:40.505Z,28.80
2019-04-22T11:55:10.808Z,28.20
2019-04-22T11:57:39.418Z,27.40
2019-04-22T12:00:14.573Z,27.30
2019-04-22T12:02:44.808Z,27.20
2019-04-22T12:05:14.248Z,26.30
2019-04-22T12:07:42.870Z,26.40
2019-04-22T12:10:25.374Z,26.30
2019-04-22T12:12:44.717Z,26.30
2019-04-22T12:15:12.973Z,25.70
2019-04-22T12:17:42.639Z,25.60
2019-04-22T12:20:14.192Z,25.60
2019-04-22T12:22:42.960Z,25.60
2019-04-22T12:25:29.237Z,25.80
2019-04-22T12:27:45.301Z,26.00
2019-04-22T12:30:16.741Z,25.80
2019-04-22T12:32:45.606Z,25.00
2019-04-22T12:35:15.638Z,25.00
2019-04-22T12:37:52.952Z,24.90
2019-04-22T12:40:31.556Z,24.90
2019-04-22T12:42:49.167Z,25.00
2019-04-22T12:45:18.479Z,24.80
2019-04-22T12:47:48.244Z,24.10
2019-04-22T12:50:24.120Z,24.20
2019-04-22T12:52:55.586Z,24.10
2019-04-22T12:55:19.708Z,24.30
2019-04-22T12:57:48.621Z,24.20
2019-04-22T13:00:20.437Z,24.00
2019-04-22T13:02:49.179Z,24.00
2019-04-22T13:05:18.568Z,24.60
2019-04-22T13:07:49.539Z,24.40
2019-04-22T13:10:20.129Z,24.80
2019-04-22T13:12:49.040Z,24.60
2019-04-22T13:15:18.244Z,24.70
2019-04-22T13:17:59.521Z,24.20
2019-04-22T13:20:19.840Z,23.80
2019-04-22T13:22:48.629Z,23.70
2019-04-22T13:25:20.149Z,24.00
2019-04-22T13:27:49.223Z,23.50
2019-04-22T13:30:22.908Z,23.20
2019-04-22T13:32:52.673Z,23.70
2019-04-22T13:35:22.231Z,23.60
2019-04-22T13:37:53.043Z,23.80
2019-04-22T13:40:23.182Z,23.70
2019-04-22T13:42:53.513Z,24.20
2019-04-22T13:45:22.980Z,23.40
2019-04-22T13:48:11.543Z,22.90
2019-04-22T13:51:05.705Z,22.90
2019-04-22T13:55:51.159Z,24.20
2019-04-22T13:58:08.155Z,25.00
2019-04-22T14:00:31.042Z,25.10
2019-04-22T14:06:07.254Z,25.30
2019-04-22T14:08:35.744Z,25.60
2019-04-22T14:11:18.288Z,26.10
2019-04-22T14:13:34.548Z,26.60
2019-04-22T14:16:04.581Z,26.60
2019-04-22T14:18:34.793Z,26.70
2019-04-22T14:21:04.960Z,26.10
2019-04-22T14:23:34.847Z,26.10
2019-04-22T14:26:05.009Z,25.80
2019-04-22T14:28:33.696Z,26.10
2019-04-22T14:31:02.471Z,25.90
2019-04-22T14:33:32.059Z,25.90
2019-04-22T14:36:00.618Z,25.80
2019-04-22T14:38:30.324Z,26.10
2019-04-22T14:41:00.541Z,25.90
2019-04-22T14:44:00.771Z,25.90
2019-04-22T14:46:30.098Z,26.20
2019-04-22T14:48:49.646Z,26.50
2019-04-22T14:51:21.273Z,26.40
2019-04-22T14:53:56.668Z,25.50
2019-04-22T14:56:06.534Z,25.30
2019-04-22T14:58:35.235Z,25.30
2019-04-22T15:01:04.476Z,25.70
2019-04-22T15:03:33.381Z,25.80
2019-04-22T15:06:02.228Z,25.90
2019-04-22T15:08:31.233Z,26.00
2019-04-22T15:11:00.165Z,25.90
2019-04-22T15:13:29.406Z,25.90
2019-04-22T15:16:05.777Z,25.90
2019-04-22T15:18:45.970Z,26.40
2019-04-22T15:21:18.650Z,26.50
2019-04-22T15:23:48.398Z,26.80
2019-04-22T15:26:17.240Z,26.90
2019-04-22T15:28:47.142Z,26.90
2019-04-22T15:31:19.450Z,26.90
2019-04-22T15:33:50.289Z,27.10
2019-04-22T15:36:20.037Z,27.30
2019-04-22T15:38:49.196Z,27.50
2019-04-22T15:41:18.801Z,27.80
2019-04-22T15:43:47.815Z,27.80
2019-04-22T15:46:18.044Z,28.20
2019-04-22T15:48:48.443Z,28.20
2019-04-22T15:51:18.438Z,27.90
2019-04-22T15:53:47.601Z,27.40
2019-04-22T15:56:16.845Z,27.20
2019-04-22T15:58:46.103Z,27.50
2019-04-22T16:01:21.732Z,27.50
2019-04-22T16:03:44.987Z,27.00
2019-04-22T16:06:13.523Z,26.80
2019-04-22T16:08:43.692Z,26.70
2019-04-22T16:11:13.820Z,26.60
2019-04-22T16:13:44.276Z,26.50
2019-04-22T16:16:14.442Z,26.60
2019-04-22T16:18:44.402Z,26.50
2019-04-22T16:21:25.916Z,27.10
2019-04-22T16:23:52.086Z,26.80
2019-04-22T16:26:40.411Z,26.50
2019-04-22T16:31:51.370Z,26.70
2019-04-22T16:34:21.523Z,27.00
2019-04-22T16:36:50.220Z,27.20
2019-04-22T16:39:18.986Z,27.70
2019-04-22T16:41:48.641Z,28.10
2019-04-22T16:44:18.606Z,28.10
2019-04-22T16:46:47.783Z,28.40
2019-04-22T16:49:16.464Z,28.20
2019-04-22T16:51:45.827Z,28.40
2019-04-22T16:54:15.885Z,28.40
2019-04-22T16:56:45.786Z,28.60
2019-04-22T16:59:14.887Z,28.80
2019-04-22T17:01:46.265Z,29.30
2019-04-22T17:04:34.850Z,29.40
2019-04-22T17:07:05.854Z,29.80
2019-04-22T17:09:34.551Z,30.00
2019-04-22T17:12:03.643Z,30.10
2019-04-22T17:14:36.000Z,30.10
2019-04-22T17:17:02.412Z,30.50
2019-04-22T17:19:31.135Z,30.50
2019-04-22T17:21:59.810Z,30.50
2019-04-22T17:24:29.872Z,30.90
2019-04-22T17:26:59.812Z,30.80
2019-04-22T17:29:28.668Z,30.80
2019-04-22T17:32:04.311Z,30.60
2019-04-22T17:34:27.669Z,30.40
2019-04-22T17:36:57.263Z,30.70
2019-04-22T17:39:35.693Z,30.40
2019-04-22T17:42:14.050Z,29.80
2019-04-22T17:45:12.437Z,29.80
2019-04-22T17:47:30.238Z,30.40
2019-04-22T17:50:08.645Z,30.60
2019-04-22T17:52:51.106Z,31.70
2019-04-22T17:54:57.217Z,31.90
2019-04-22T17:57:34.557Z,32.50
2019-04-22T18:00:01.464Z,33.00
2019-04-22T18:02:32.658Z,33.50
2019-04-22T18:04:53.329Z,34.00
2019-04-22T18:07:39.837Z,34.40
2019-04-22T18:12:47.345Z,34.50
2019-04-22T18:15:11.747Z,34.60
2019-04-22T18:17:43.570Z,35.10
2019-04-22T18:20:08.910Z,35.00
2019-04-22T18:22:29.465Z,35.40
2019-04-22T18:25:02.007Z,35.00
2019-04-22T18:27:51.671Z,34.90
2019-04-22T18:30:06.417Z,35.80
2019-04-22T18:32:41.430Z,34.70
2019-04-22T18:35:11.783Z,35.40
2019-04-22T18:37:43.755Z,35.00
2019-04-22T18:40:16.307Z,35.40
2019-04-22T18:42:45.823Z,35.80
2019-04-22T18:45:29.548Z,35.70
2019-04-22T18:47:40.304Z,36.30
2019-04-22T18:50:12.737Z,36.00
2019-04-22T18:52:54.185Z,36.50
2019-04-22T18:55:38.788Z,36.20
2019-04-22T18:58:11.995Z,35.40
2019-04-22T19:00:32.185Z,35.20
2019-04-22T19:03:07.148Z,35.00
2019-04-22T19:06:02.686Z,34.80
2019-04-22T19:08:28.609Z,34.90
2019-04-22T19:11:02.534Z,35.60
2019-04-22T19:13:50.102Z,34.80
2019-04-22T19:16:15.774Z,34.50
2019-04-22T19:21:02.764Z,34.70
2019-04-22T19:23:45.071Z,34.80
2019-04-22T19:25:58.571Z,34.60
2019-04-22T19:28:48.428Z,34.60
2019-04-22T19:31:08.911Z,35.00
2019-04-22T19:33:34.976Z,34.40
2019-04-22T19:36:08.559Z,34.30
2019-04-22T19:38:32.235Z,34.50
2019-04-22T19:43:46.870Z,34.50
2019-04-22T19:46:07.442Z,34.70
2019-04-22T19:48:45.041Z,34.90
2019-04-22T19:51:18.731Z,35.00
2019-04-22T19:53:46.992Z,35.10
2019-04-22T19:56:11.666Z,35.10
2019-04-22T19:58:41.544Z,35.10
2019-04-22T20:01:26.947Z,35.50
2019-04-22T20:04:13.676Z,36.00
2019-04-22T20:06:35.013Z,36.00
2019-04-22T20:09:10.909Z,36.10
2019-04-22T20:11:34.198Z,36.20
2019-04-22T20:14:06.025Z,36.60
2019-04-22T20:16:32.195Z,37.00
2019-04-22T20:19:15.567Z,37.40
2019-04-22T20:21:36.354Z,37.60
2019-04-22T20:23:57.376Z,38.00
2019-04-22T20:26:44.147Z,38.70
2019-04-22T20:29:13.142Z,39.20
2019-04-22T20:31:41.006Z,39.20
2019-04-22T20:34:17.334Z,39.40
2019-04-22T20:39:03.502Z,40.00
2019-04-22T20:41:34.227Z,40.50
2019-04-22T20:44:12.860Z,40.90
2019-04-22T20:46:36.288Z,41.10
2019-04-22T20:49:15.170Z,41.40
2019-04-22T20:52:20.300Z,41.40
2019-04-22T20:54:11.939Z,42.00
2019-04-22T20:56:37.293Z,42.20
2019-04-22T20:59:10.237Z,42.00
2019-04-22T21:01:39.988Z,42.00
2019-04-22T21:03:58.736Z,42.30
2019-04-22T21:06:42.285Z,43.10
2019-04-22T21:09:12.159Z,42.70
2019-04-22T21:11:42.302Z,42.70
2019-04-22T21:14:06.216Z,42.80
2019-04-22T21:16:47.825Z,42.50
2019-04-22T21:19:22.010Z,42.60
2019-04-22T21:21:45.040Z,42.80
2019-04-22T21:24:09.368Z,42.80
2019-04-22T21:26:45.323Z,42.80
2019-04-22T21:29:13.318Z,42.80
2019-04-22T21:31:45.409Z,43.30
2019-04-22T21:34:13.044Z,44.30
2019-04-22T21:36:54.811Z,44.50
2019-04-22T21:39:12.079Z,45.40
2019-04-22T21:41:47.257Z,45.60
2019-04-22T21:44:18.387Z,46.20
2019-04-22T21:46:59.719Z,46.50
2019-04-22T21:49:18.926Z,46.60
2019-04-22T21:51:53.782Z,46.60
2019-04-22T21:54:22.167Z,47.00
2019-04-22T21:57:05.825Z,47.10
2019-04-22T21:59:22.309Z,47.40
2019-04-22T22:01:56.838Z,47.90
2019-04-22T22:04:21.979Z,47.50
2019-04-22T22:06:45.065Z,47.10
2019-04-22T22:09:25.248Z,47.20
2019-04-22T22:11:52.821Z,47.60
2019-04-22T22:14:22.826Z,47.70
2019-04-22T22:16:50.499Z,47.60
2019-04-22T22:19:30.147Z,47.70
2019-04-22T22:22:15.126Z,48.50
2019-04-22T22:24:41.471Z,47.90
2019-04-22T22:27:09.761Z,47.80
2019-04-22T22:29:50.441Z,47.70
2019-04-22T22:32:13.000Z,47.90
2019-04-22T22:34:32.734Z,47.80
2019-04-22T22:37:00.273Z,47.80
2019-04-22T22:39:25.802Z,47.80
2019-04-22T22:41:47.970Z,47.70
2019-04-22T22:44:25.107Z,47.80
2019-04-22T22:47:03.574Z,48.00
2019-04-22T22:49:42.457Z,47.80
2019-04-22T22:52:31.087Z,47.60
2019-04-22T22:54:44.015Z,47.70
2019-04-22T22:57:17.910Z,47.60
2019-04-22T22:59:38.609Z,47.70
2019-04-22T23:02:09.993Z,48.00
2019-04-22T23:04:43.059Z,48.20
2019-04-22T23:07:20.823Z,48.40
2019-04-22T23:09:36.462Z,48.20
2019-04-22T23:12:25.080Z,47.80
2019-04-22T23:14:45.046Z,47.60
2019-04-22T23:16:57.705Z,47.90
2019-04-22T23:19:21.686Z,47.80
2019-04-22T23:21:54.423Z,47.60
2019-04-22T23:27:27.233Z,47.50
2019-04-22T23:30:13.168Z,47.50
2019-04-22T23:32:43.604Z,47.40
2019-04-22T23:35:29.203Z,47.50
2019-04-22T23:37:57.324Z,47.50
2019-04-22T23:40:34.364Z,47.20
2019-04-22T23:43:09.056Z,47.00
2019-04-22T23:45:46.618Z,47.10
2019-04-22T23:48:11.702Z,47.10
2019-04-22T23:50:51.088Z,47.00
2019-04-22T23:53:33.089Z,47.50
2019-04-22T23:56:00.261Z,47.60
2019-04-22T23:58:47.062Z,47.70
